createdAt,value
2022-09-23T00:01:14.310Z,0.60
2022-09-23T00:03:42.940Z,0.75
2022-09-23T00:06:18.648Z,0.70
2022-09-23T00:08:45.864Z,0.50
2022-09-23T00:11:27.723Z,0.40
2022-09-23T00:13:59.234Z,0.98
2022-09-23T00:16:29.011Z,0.45
2022-09-23T00:18:56.320Z,0.43
2022-09-23T00:21:29.288Z,0.50
2022-09-23T00:23:56.681Z,0.57
2022-09-23T00:26:23.797Z,0.77
2022-09-23T00:28:51.024Z,0.50
2022-09-23T00:31:23.773Z,0.50
2022-09-23T00:33:56.784Z,0.47
2022-09-23T00:36:24.646Z,0.80
2022-09-23T00:38:52.052Z,0.40
2022-09-23T00:41:18.994Z,0.40
2022-09-23T00:43:50.273Z,1.27
2022-09-23T00:46:29.140Z,0.30
2022-09-23T00:49:21.357Z,0.70
2022-09-23T00:51:56.153Z,0.70
2022-09-23T00:54:25.563Z,0.50
2022-09-23T00:56:52.436Z,0.30
2022-09-23T00:59:20.734Z,0.40
2022-09-23T01:01:49.739Z,0.63
2022-09-23T01:04:16.619Z,0.60
2022-09-23T01:06:43.424Z,0.43
2022-09-23T01:09:10.388Z,0.32
2022-09-23T01:11:43.233Z,0.30
2022-09-23T01:14:32.160Z,0.85
2022-09-23T01:17:23.212Z,0.30
2022-09-23T01:20:08.517Z,0.80
2022-09-23T01:23:21.998Z,0.60
2022-09-23T01:26:05.699Z,0.43
2022-09-23T01:28:44.271Z,0.40
2022-09-23T01:31:35.866Z,0.40
2022-09-23T01:34:17.207Z,0.35
2022-09-23T01:36:53.775Z,0.40
2022-09-23T01:39:35.303Z,0.63
2022-09-23T01:42:13.998Z,0.30
2022-09-23T01:44:48.608Z,0.50
2022-09-23T01:47:39.833Z,0.38
2022-09-23T01:50:29.602Z,0.40
2022-09-23T01:53:04.764Z,0.85
2022-09-23T01:55:40.409Z,0.70
2022-09-23T01:58:29.707Z,0.75
2022-09-23T02:01:01.673Z,0.90
2022-09-23T02:03:46.010Z,0.80
2022-09-23T02:06:31.780Z,0.40
2022-09-23T02:09:27.297Z,0.70
2022-09-23T02:12:01.177Z,0.82
2022-09-23T02:14:50.028Z,0.40
2022-09-23T02:17:27.525Z,0.80
2022-09-23T02:20:04.579Z,0.40
2022-09-23T02:22:41.775Z,0.77
2022-09-23T02:25:10.093Z,0.40
2022-09-23T02:27:41.008Z,0.50
2022-09-23T02:30:15.338Z,0.32
2022-09-23T02:33:00.651Z,0.28
2022-09-23T02:35:33.419Z,0.40
2022-09-23T02:38:09.176Z,0.40
2022-09-23T02:41:04.719Z,0.35
2022-09-23T02:43:35.532Z,0.35
2022-09-23T02:46:06.975Z,0.52
2022-09-23T02:48:43.563Z,0.30
2022-09-23T02:51:10.867Z,0.55
2022-09-23T02:53:38.209Z,0.40
2022-09-23T02:56:19.300Z,0.30
2022-09-23T02:58:48.296Z,0.30
2022-09-23T03:01:32.710Z,0.50
2022-09-23T03:04:25.121Z,0.38
2022-09-23T03:06:58.199Z,0.40
2022-09-23T03:09:31.517Z,0.40
2022-09-23T03:12:16.960Z,1.10
2022-09-23T03:14:57.250Z,0.45
2022-09-23T03:17:33.108Z,0.55
2022-09-23T03:20:10.071Z,0.50
2022-09-23T03:23:06.701Z,0.52
2022-09-23T03:25:38.409Z,0.45
2022-09-23T03:28:07.785Z,0.40
2022-09-23T03:30:37.230Z,0.50
2022-09-23T03:33:09.225Z,0.50
2022-09-23T03:36:03.394Z,0.32
2022-09-23T03:38:35.153Z,0.43
2022-09-23T03:41:04.247Z,0.57
2022-09-23T03:43:35.289Z,0.60
2022-09-23T03:46:07.314Z,0.38
2022-09-23T03:48:34.295Z,0.75
2022-09-23T03:51:19.657Z,1.00
2022-09-23T03:53:46.488Z,0.60
2022-09-23T03:56:13.284Z,0.35
2022-09-23T03:58:40.238Z,0.50
2022-09-23T04:01:07.521Z,0.90
2022-09-23T04:03:34.309Z,0.40
2022-09-23T04:06:01.559Z,0.40
2022-09-23T04:08:28.413Z,0.60
2022-09-23T04:11:00.311Z,0.73
2022-09-23T04:13:27.920Z,1.17
2022-09-23T04:15:55.117Z,0.40
2022-09-23T04:18:21.928Z,0.40
2022-09-23T04:20:49.086Z,0.32
2022-09-23T04:23:15.981Z,0.50
2022-09-23T04:25:48.911Z,0.40
2022-09-23T04:28:15.871Z,0.30
2022-09-23T04:30:43.819Z,0.40
2022-09-23T04:33:11.424Z,0.35
2022-09-23T04:35:40.314Z,1.38
2022-09-23T04:38:07.618Z,0.50
2022-09-23T04:40:36.538Z,0.45
2022-09-23T04:43:03.400Z,0.35
2022-09-23T04:45:30.487Z,0.63
2022-09-23T04:47:59.847Z,0.70
2022-09-23T04:50:26.706Z,1.10
2022-09-23T04:52:54.127Z,0.85
2022-09-23T04:55:22.063Z,0.70
2022-09-23T04:57:48.827Z,0.50
2022-09-23T05:00:17.917Z,0.80
2022-09-23T05:02:49.282Z,0.50
2022-09-23T05:05:20.371Z,0.45
2022-09-23T05:07:48.430Z,0.52
2022-09-23T05:10:15.904Z,0.45
2022-09-23T05:12:42.904Z,0.50
2022-09-23T05:15:10.002Z,0.50
2022-09-23T05:17:37.396Z,2.72
2022-09-23T05:20:05.065Z,0.50
2022-09-23T05:22:32.031Z,0.40
2022-09-23T05:25:00.323Z,0.40
2022-09-23T05:27:27.261Z,0.32
2022-09-23T05:29:54.398Z,0.60
2022-09-23T05:32:21.933Z,0.85
2022-09-23T05:34:48.833Z,0.50
2022-09-23T05:37:15.609Z,0.60
2022-09-23T05:39:42.394Z,0.73
2022-09-23T05:42:10.024Z,0.47
2022-09-23T05:44:36.811Z,0.50
2022-09-23T05:47:03.716Z,0.60
2022-09-23T05:49:55.309Z,0.50
2022-09-23T05:52:17.838Z,0.40
2022-09-23T05:54:44.640Z,0.50
2022-09-23T05:57:12.050Z,0.50
2022-09-23T05:59:39.128Z,0.50
2022-09-23T06:02:06.360Z,0.43
2022-09-23T06:04:33.238Z,0.50
2022-09-23T06:07:03.342Z,0.55
2022-09-23T06:09:35.524Z,1.55
2022-09-23T06:12:03.964Z,0.40
2022-09-23T06:14:30.724Z,0.50
2022-09-23T06:16:57.496Z,0.77
2022-09-23T06:19:24.285Z,1.05
2022-09-23T06:21:51.066Z,0.40
2022-09-23T06:24:21.275Z,0.40
2022-09-23T06:26:49.896Z,0.40
2022-09-23T06:29:18.208Z,0.50
2022-09-23T06:31:45.083Z,0.50
2022-09-23T06:34:14.134Z,0.40
2022-09-23T06:36:45.072Z,0.73
2022-09-23T06:39:14.520Z,0.60
2022-09-23T06:41:41.333Z,0.50
2022-09-23T06:44:08.224Z,0.50
2022-09-23T06:46:36.691Z,0.60
2022-09-23T06:49:03.720Z,0.40
2022-09-23T06:51:30.596Z,0.50
2022-09-23T06:53:57.421Z,0.52
2022-09-23T06:56:24.819Z,0.40
2022-09-23T06:58:52.866Z,0.50
2022-09-23T07:01:20.085Z,0.40
2022-09-23T07:03:48.510Z,0.60
2022-09-23T07:06:15.628Z,0.60
2022-09-23T07:08:44.964Z,0.70
2022-09-23T07:11:13.370Z,0.40
2022-09-23T07:13:42.123Z,0.40
2022-09-23T07:16:09.944Z,0.47
2022-09-23T07:18:37.636Z,0.60
2022-09-23T07:21:15.366Z,0.50
2022-09-23T07:23:43.391Z,0.40
2022-09-23T07:26:10.532Z,0.30
2022-09-23T07:28:38.366Z,0.50
2022-09-23T07:31:19.586Z,0.40
2022-09-23T07:33:57.719Z,0.30
2022-09-23T07:36:27.953Z,0.93
2022-09-23T07:39:01.801Z,0.65
2022-09-23T07:41:30.030Z,0.40
2022-09-23T07:43:59.013Z,1.00
2022-09-23T07:46:28.102Z,0.50
2022-09-23T07:48:55.865Z,0.93
2022-09-23T07:51:36.033Z,0.50
2022-09-23T07:54:07.787Z,1.00
2022-09-23T07:56:35.980Z,1.60
2022-09-23T07:59:04.693Z,1.02
2022-09-23T08:01:34.704Z,1.10
2022-09-23T08:04:08.187Z,1.52
2022-09-23T08:06:34.981Z,0.70
2022-09-23T08:09:02.029Z,1.13
2022-09-23T08:11:28.986Z,0.88
2022-09-23T08:13:56.856Z,2.00
2022-09-23T08:16:23.708Z,2.13
2022-09-23T08:18:50.615Z,2.42
2022-09-23T08:21:22.036Z,2.80
2022-09-23T08:23:49.511Z,1.73
2022-09-23T08:26:21.674Z,2.30
2022-09-23T08:28:49.120Z,1.08
2022-09-23T08:31:16.065Z,1.25
2022-09-23T08:33:45.572Z,1.77
2022-09-23T08:36:12.375Z,1.27
2022-09-23T08:38:39.161Z,2.10
2022-09-23T08:41:27.569Z,1.63
2022-09-23T08:44:03.089Z,1.13
2022-09-23T08:46:42.360Z,1.73
2022-09-23T08:49:12.391Z,1.80
2022-09-23T08:51:46.915Z,1.67
2022-09-23T08:54:17.053Z,1.52
2022-09-23T08:56:48.998Z,1.15
2022-09-23T08:59:39.452Z,1.70
2022-09-23T09:02:14.777Z,2.53
2022-09-23T09:04:45.481Z,1.90
2022-09-23T09:07:37.874Z,1.92
2022-09-23T09:10:19.424Z,1.58
2022-09-23T09:13:07.528Z,2.45
2022-09-23T09:15:42.954Z,2.30
2022-09-23T09:18:20.013Z,1.92
2022-09-23T09:21:09.264Z,3.08
2022-09-23T09:23:58.024Z,2.80
2022-09-23T09:26:28.222Z,2.42
2022-09-23T09:29:11.456Z,3.03
2022-09-23T09:31:50.643Z,2.78
2022-09-23T09:34:35.186Z,2.00
2022-09-23T09:37:25.249Z,3.15
2022-09-23T09:39:52.077Z,2.70
2022-09-23T09:42:30.764Z,1.90
2022-09-23T09:45:03.243Z,1.77
2022-09-23T09:47:57.725Z,2.30
2022-09-23T09:50:52.062Z,2.80
2022-09-23T09:53:27.827Z,2.13
2022-09-23T09:56:16.350Z,1.50
2022-09-23T09:59:01.478Z,4.18
2022-09-23T10:01:31.409Z,2.65
2022-09-23T10:04:01.411Z,3.33
2022-09-23T10:06:36.070Z,2.67
2022-09-23T10:09:10.970Z,2.92
2022-09-23T10:11:38.712Z,2.55
2022-09-23T10:14:17.706Z,3.30
2022-09-23T10:16:47.223Z,1.90
2022-09-23T10:19:24.474Z,2.78
2022-09-23T10:22:00.308Z,2.83
2022-09-23T10:24:30.551Z,2.28
2022-09-23T10:27:04.427Z,3.25
2022-09-23T10:29:37.002Z,3.95
2022-09-23T10:32:38.707Z,3.13
2022-09-23T10:35:18.704Z,2.53
2022-09-23T10:37:54.393Z,2.60
2022-09-23T10:40:49.063Z,1.77
2022-09-23T10:44:05.272Z,1.73
2022-09-23T10:46:38.375Z,3.58
2022-09-23T10:49:36.624Z,2.75
2022-09-23T10:52:41.789Z,1.92
2022-09-23T10:55:45.776Z,2.10
2022-09-23T10:58:37.535Z,2.38
2022-09-23T11:01:10.547Z,1.98
2022-09-23T11:04:11.842Z,1.42
2022-09-23T11:07:00.752Z,2.05
2022-09-23T11:09:55.219Z,1.63
2022-09-23T11:12:44.200Z,3.53
2022-09-23T11:15:20.029Z,1.98
2022-09-23T11:17:55.815Z,2.05
2022-09-23T11:20:23.170Z,2.13
2022-09-23T11:22:57.104Z,1.45
2022-09-23T11:25:47.220Z,1.15
2022-09-23T11:28:49.729Z,2.13
2022-09-23T11:31:48.849Z,1.65
2022-09-23T11:34:30.986Z,2.13
2022-09-23T11:37:07.220Z,2.45
2022-09-23T11:39:59.649Z,1.25
2022-09-23T11:42:33.276Z,1.10
2022-09-23T11:45:07.237Z,0.88
2022-09-23T11:47:46.737Z,1.52
2022-09-23T11:50:25.804Z,0.90
2022-09-23T11:53:02.713Z,1.20
2022-09-23T11:55:34.991Z,1.83
2022-09-23T11:58:17.436Z,1.13
2022-09-23T12:01:07.168Z,0.80
2022-09-23T12:04:17.757Z,1.08
2022-09-23T12:06:52.418Z,1.60
2022-09-23T12:09:57.388Z,1.08
2022-09-23T12:12:30.605Z,1.83
2022-09-23T12:15:05.232Z,1.30
2022-09-23T12:17:59.056Z,1.63
2022-09-23T12:20:40.706Z,1.20
2022-09-23T12:23:41.274Z,1.30
2022-09-23T12:26:27.850Z,1.25
2022-09-23T12:29:00.835Z,1.10
2022-09-23T12:31:33.863Z,0.95
2022-09-23T12:34:20.048Z,1.20
2022-09-23T12:36:47.306Z,1.63
2022-09-23T12:39:23.005Z,1.88
2022-09-23T12:41:58.410Z,1.90
2022-09-23T12:44:41.868Z,1.20
2022-09-23T12:47:14.687Z,3.20
2022-09-23T12:49:43.006Z,1.90
2022-09-23T12:52:18.884Z,2.05
2022-09-23T12:54:50.503Z,1.38
2022-09-23T12:57:35.500Z,1.08
2022-09-23T13:00:12.683Z,1.50
2022-09-23T13:02:43.783Z,0.88
2022-09-23T13:05:42.623Z,0.80
2022-09-23T13:08:20.793Z,1.05
2022-09-23T13:10:55.309Z,0.95
2022-09-23T13:13:44.439Z,0.82
2022-09-23T13:16:20.745Z,0.52
2022-09-23T13:18:57.943Z,0.80
2022-09-23T13:21:43.071Z,0.75
2022-09-23T13:24:28.384Z,0.40
2022-09-23T13:27:10.901Z,0.60
2022-09-23T13:29:55.718Z,0.60
2022-09-23T13:32:34.433Z,0.50
2022-09-23T13:35:14.329Z,0.50
2022-09-23T13:37:48.221Z,1.25
2022-09-23T13:40:24.203Z,0.70
2022-09-23T13:43:04.553Z,1.05
2022-09-23T13:45:36.308Z,0.57
2022-09-23T13:48:11.050Z,0.85
2022-09-23T13:50:40.995Z,2.00
2022-09-23T13:53:16.774Z,0.55
2022-09-23T13:55:43.764Z,0.70
2022-09-23T13:58:22.469Z,0.63
2022-09-23T14:00:50.696Z,1.02
2022-09-23T14:03:36.576Z,1.17
2022-09-23T14:06:14.261Z,1.92
2022-09-23T14:08:49.906Z,1.42
2022-09-23T14:11:22.592Z,0.93
2022-09-23T14:13:55.173Z,0.70
2022-09-23T14:16:26.752Z,0.50
2022-09-23T14:18:59.424Z,0.57
2022-09-23T14:21:29.055Z,0.63
2022-09-23T14:23:55.979Z,0.60
2022-09-23T14:26:24.706Z,0.80
2022-09-23T14:28:52.379Z,0.77
2022-09-23T14:31:19.506Z,0.65
2022-09-23T14:33:46.969Z,0.63
2022-09-23T14:36:36.957Z,0.93
2022-09-23T14:39:12.739Z,0.57
2022-09-23T14:41:45.674Z,0.73
2022-09-23T14:44:23.200Z,0.47
2022-09-23T14:46:57.587Z,0.50
2022-09-23T14:49:25.257Z,0.52
2022-09-23T14:52:03.436Z,0.40
2022-09-23T14:54:30.425Z,0.40
2022-09-23T14:56:57.866Z,0.68
2022-09-23T14:59:33.688Z,1.45
2022-09-23T15:02:00.781Z,0.88
2022-09-23T15:04:31.579Z,0.50
2022-09-23T15:07:18.871Z,1.30
2022-09-23T15:09:46.236Z,0.85
2022-09-23T15:12:15.938Z,0.50
2022-09-23T15:14:51.247Z,0.47
2022-09-23T15:17:37.656Z,0.52
2022-09-23T15:20:15.845Z,0.40
2022-09-23T15:22:48.680Z,0.68
2022-09-23T15:25:21.648Z,0.50
2022-09-23T15:28:04.275Z,0.40
2022-09-23T15:30:32.103Z,0.40
2022-09-23T15:32:59.889Z,1.10
2022-09-23T15:35:27.130Z,0.50
2022-09-23T15:37:58.257Z,0.47
2022-09-23T15:40:28.211Z,0.50
2022-09-23T15:42:57.415Z,0.43
2022-09-23T15:45:36.905Z,0.60
2022-09-23T15:48:11.872Z,0.50
2022-09-23T15:50:40.510Z,0.43
2022-09-23T15:53:07.426Z,0.60
2022-09-23T15:55:34.187Z,0.40
2022-09-23T15:58:00.969Z,0.90
2022-09-23T16:00:27.815Z,0.65
2022-09-23T16:02:54.818Z,0.80
2022-09-23T16:05:39.668Z,0.65
2022-09-23T16:08:09.646Z,0.70
2022-09-23T16:10:37.697Z,0.60
2022-09-23T16:13:07.674Z,0.82
2022-09-23T16:15:34.721Z,0.50
2022-09-23T16:18:01.779Z,0.50
2022-09-23T16:20:30.358Z,0.60
2022-09-23T16:23:00.553Z,1.15
2022-09-23T16:25:30.150Z,0.60
2022-09-23T16:27:58.479Z,0.57
2022-09-23T16:30:30.440Z,0.63
2022-09-23T16:32:57.263Z,0.40
2022-09-23T16:35:27.296Z,0.43
2022-09-23T16:37:54.427Z,0.70
2022-09-23T16:40:22.824Z,0.32
2022-09-23T16:42:52.353Z,0.22
2022-09-23T16:45:23.100Z,0.30
2022-09-23T16:47:51.518Z,0.40
2022-09-23T16:50:20.591Z,0.40
2022-09-23T16:52:47.373Z,0.50
2022-09-23T16:55:15.056Z,0.30
2022-09-23T16:57:42.230Z,0.50
2022-09-23T17:00:33.726Z,3.50
2022-09-23T17:03:19.701Z,2.42
2022-09-23T17:05:47.066Z,1.48
2022-09-23T17:08:15.717Z,1.23
2022-09-23T17:10:55.141Z,0.98
2022-09-23T17:13:21.991Z,0.70
2022-09-23T17:15:48.862Z,0.98
2022-09-23T17:18:19.458Z,0.60
2022-09-23T17:21:04.564Z,0.70
2022-09-23T17:23:32.765Z,0.75
2022-09-23T17:26:00.211Z,0.60
2022-09-23T17:28:27.335Z,0.93
2022-09-23T17:31:02.794Z,0.57
2022-09-23T17:33:31.937Z,0.57
2022-09-23T17:36:00.285Z,0.40
2022-09-23T17:38:29.375Z,0.50
2022-09-23T17:41:01.301Z,0.60
2022-09-23T17:43:33.449Z,0.40
2022-09-23T17:46:08.337Z,0.65
2022-09-23T17:48:41.316Z,1.00
2022-09-23T17:51:14.150Z,0.47
2022-09-23T17:53:45.394Z,0.68
2022-09-23T17:56:23.319Z,0.55
2022-09-23T17:58:51.204Z,0.80
2022-09-23T18:01:20.981Z,0.50
2022-09-23T18:03:48.649Z,0.60
2022-09-23T18:06:20.921Z,0.60
2022-09-23T18:08:49.726Z,0.40
2022-09-23T18:11:25.109Z,0.88
2022-09-23T18:14:00.785Z,0.63
2022-09-23T18:16:30.367Z,1.73
2022-09-23T18:18:59.844Z,1.00
2022-09-23T18:21:29.834Z,1.13
2022-09-23T18:24:21.410Z,1.48
2022-09-23T18:26:45.088Z,0.73
2022-09-23T18:29:11.863Z,0.70
2022-09-23T18:31:39.239Z,0.93
2022-09-23T18:34:10.149Z,0.60
2022-09-23T18:36:37.363Z,0.55
2022-09-23T18:39:05.110Z,0.50
2022-09-23T18:41:31.905Z,0.68
2022-09-23T18:43:58.696Z,0.30
2022-09-23T18:46:30.913Z,0.38
2022-09-23T18:49:16.975Z,0.38
2022-09-23T18:51:52.533Z,0.30
2022-09-23T18:54:21.165Z,0.30
2022-09-23T18:56:49.986Z,0.40
2022-09-23T18:59:20.464Z,0.55
2022-09-23T19:01:49.895Z,0.50
2022-09-23T19:04:19.588Z,0.50
2022-09-23T19:06:46.950Z,0.40
2022-09-23T19:09:15.815Z,0.40
2022-09-23T19:11:43.066Z,1.33
2022-09-23T19:14:11.717Z,0.80
2022-09-23T19:16:40.074Z,0.73
2022-09-23T19:19:07.381Z,0.82
2022-09-23T19:21:35.216Z,0.60
2022-09-23T19:24:07.437Z,0.68
2022-09-23T19:26:39.895Z,1.00
2022-09-23T19:29:08.547Z,0.88
2022-09-23T19:31:40.220Z,0.63
2022-09-23T19:34:12.457Z,0.60
2022-09-23T19:36:42.616Z,0.68
2022-09-23T19:39:17.375Z,0.80
2022-09-23T19:41:44.956Z,0.85
2022-09-23T19:44:11.909Z,0.50
2022-09-23T19:46:41.937Z,0.77
2022-09-23T19:49:09.310Z,0.47
2022-09-23T19:51:36.192Z,0.45
2022-09-23T19:54:04.438Z,1.40
2022-09-23T19:56:32.819Z,0.47
2022-09-23T19:59:02.886Z,0.40
2022-09-23T20:01:32.048Z,0.35
2022-09-23T20:03:59.469Z,0.40
2022-09-23T20:06:30.569Z,0.40
2022-09-23T20:08:59.532Z,0.70
2022-09-23T20:11:28.669Z,0.73
2022-09-23T20:14:07.070Z,1.80
2022-09-23T20:16:35.901Z,0.47
2022-09-23T20:19:04.560Z,0.40
2022-09-23T20:21:33.574Z,0.47
2022-09-23T20:24:00.900Z,0.50
2022-09-23T20:26:55.341Z,0.55
2022-09-23T20:29:22.257Z,0.70
2022-09-23T20:31:49.287Z,0.55
2022-09-23T20:34:16.211Z,0.63
2022-09-23T20:36:43.722Z,0.60
2022-09-23T20:39:10.642Z,0.47
2022-09-23T20:41:39.281Z,1.17
2022-09-23T20:44:10.451Z,0.90
2022-09-23T20:46:37.778Z,0.52
2022-09-23T20:49:08.808Z,0.55
2022-09-23T20:51:37.042Z,0.80
2022-09-23T20:54:04.573Z,0.45
2022-09-23T20:56:31.784Z,0.40
2022-09-23T20:59:03.183Z,0.60
2022-09-23T21:01:34.542Z,0.40
2022-09-23T21:04:04.077Z,0.30
2022-09-23T21:06:31.306Z,0.50
2022-09-23T21:08:58.065Z,0.50
2022-09-23T21:11:29.224Z,0.47
2022-09-23T21:13:56.679Z,0.30
2022-09-23T21:16:24.656Z,0.40
2022-09-23T21:18:52.651Z,0.30
2022-09-23T21:21:22.093Z,0.55
2022-09-23T21:23:50.032Z,0.50
2022-09-23T21:26:19.811Z,0.57
2022-09-23T21:28:54.556Z,0.63
2022-09-23T21:31:26.211Z,0.90
2022-09-23T21:33:56.694Z,1.38
2022-09-23T21:36:24.815Z,0.50
2022-09-23T21:38:52.539Z,0.60
2022-09-23T21:41:20.153Z,0.60
2022-09-23T21:43:49.536Z,0.40
2022-09-23T21:46:21.314Z,0.40
2022-09-23T21:48:53.786Z,0.80
2022-09-23T21:51:29.601Z,0.52
2022-09-23T21:53:58.004Z,0.35
2022-09-23T21:56:27.433Z,0.20
2022-09-23T21:58:55.796Z,0.60
2022-09-23T22:01:37.772Z,0.30
2022-09-23T22:04:15.285Z,1.30
2022-09-23T22:06:42.254Z,0.65
2022-09-23T22:09:20.752Z,1.00
2022-09-23T22:12:05.470Z,1.00
2022-09-23T22:14:32.397Z,0.88
2022-09-23T22:17:01.442Z,1.23
2022-09-23T22:19:35.008Z,0.85
2022-09-23T22:22:05.975Z,0.60
2022-09-23T22:24:32.779Z,0.50
2022-09-23T22:26:59.980Z,0.60
2022-09-23T22:29:45.460Z,0.50
2022-09-23T22:32:31.170Z,0.50
2022-09-23T22:35:00.754Z,0.40
2022-09-23T22:37:34.158Z,0.70
2022-09-23T22:40:02.872Z,0.40
2022-09-23T22:42:30.950Z,0.30
2022-09-23T22:44:57.871Z,0.30
2022-09-23T22:47:24.901Z,0.40
2022-09-23T22:49:54.569Z,0.45
2022-09-23T22:52:24.430Z,0.25
2022-09-23T22:54:52.477Z,0.43
2022-09-23T22:57:19.918Z,0.40
2022-09-23T22:59:50.366Z,0.40
2022-09-23T23:02:19.662Z,0.57
2022-09-23T23:04:47.615Z,1.33
2022-09-23T23:07:22.359Z,1.00
2022-09-23T23:09:53.186Z,1.05
2022-09-23T23:12:20.651Z,1.45
2022-09-23T23:14:50.374Z,1.48
2022-09-23T23:17:18.648Z,2.60
2022-09-23T23:19:51.337Z,1.10
2022-09-23T23:22:18.126Z,0.93
2022-09-23T23:24:44.959Z,0.80
2022-09-23T23:27:11.745Z,1.10
2022-09-23T23:29:38.509Z,1.23
2022-09-23T23:32:06.069Z,0.55
2022-09-23T23:34:32.857Z,1.20
2022-09-23T23:36:59.626Z,0.95
2022-09-23T23:39:26.406Z,0.73
2022-09-23T23:41:57.645Z,0.50
2022-09-23T23:44:26.391Z,0.55
2022-09-23T23:46:54.485Z,0.45
2022-09-23T23:49:21.726Z,0.30
2022-09-23T23:51:49.102Z,0.47
2022-09-23T23:54:15.933Z,1.13
2022-09-23T23:56:43.135Z,1.20
2022-09-23T23:59:10.225Z,1.15
